createdAt,value
2023-03-14T00:01:30.166Z,0.98
2023-03-14T00:03:56.881Z,1.00
2023-03-14T00:06:24.231Z,0.95
2023-03-14T00:08:52.623Z,0.90
2023-03-14T00:11:21.697Z,0.98
2023-03-14T00:13:52.766Z,1.20
2023-03-14T00:16:20.507Z,1.30
2023-03-14T00:18:47.696Z,1.40
2023-03-14T00:21:14.789Z,1.38
2023-03-14T00:23:43.071Z,1.23
2023-03-14T00:26:13.063Z,1.40
2023-03-14T00:28:41.152Z,1.70
2023-03-14T00:31:09.565Z,1.60
2023-03-14T00:33:37.047Z,1.20
2023-03-14T00:36:15.514Z,2.58
2023-03-14T00:38:44.108Z,1.70
2023-03-14T00:41:14.016Z,1.65
2023-03-14T00:43:40.961Z,1.30
2023-03-14T00:46:08.158Z,1.58
2023-03-14T00:48:35.127Z,1.33
2023-03-14T00:51:02.935Z,1.25
2023-03-14T00:53:29.748Z,1.15
2023-03-14T00:55:56.525Z,1.20
2023-03-14T00:58:23.330Z,0.60
2023-03-14T01:00:50.090Z,0.95
2023-03-14T01:03:16.881Z,1.00
2023-03-14T01:05:43.899Z,1.13
2023-03-14T01:08:12.709Z,0.95
2023-03-14T01:10:41.235Z,0.65
2023-03-14T01:13:09.326Z,0.80
2023-03-14T01:15:37.670Z,0.60
2023-03-14T01:18:04.807Z,0.40
2023-03-14T01:20:32.042Z,0.32
2023-03-14T01:22:58.818Z,0.60
2023-03-14T01:25:25.721Z,0.63
2023-03-14T01:27:52.443Z,0.50
2023-03-14T01:30:19.194Z,0.47
2023-03-14T01:32:46.145Z,0.75
2023-03-14T01:35:12.944Z,0.63
2023-03-14T01:37:39.675Z,0.60
2023-03-14T01:40:07.053Z,0.40
2023-03-14T01:42:33.871Z,0.40
2023-03-14T01:45:02.516Z,0.57
2023-03-14T01:47:30.054Z,0.40
2023-03-14T01:50:00.049Z,0.43
2023-03-14T01:52:34.572Z,0.50
2023-03-14T01:55:07.222Z,0.35
2023-03-14T01:57:44.881Z,0.60
2023-03-14T02:00:14.296Z,0.45
2023-03-14T02:02:51.513Z,0.40
2023-03-14T02:05:36.654Z,0.65
2023-03-14T02:08:07.590Z,0.25
2023-03-14T02:10:40.210Z,0.35
2023-03-14T02:13:07.950Z,0.40
2023-03-14T02:15:35.419Z,0.30
2023-03-14T02:18:04.252Z,0.35
2023-03-14T02:20:46.216Z,0.47
2023-03-14T02:23:17.743Z,0.45
2023-03-14T02:25:56.691Z,0.60
2023-03-14T02:28:23.464Z,0.50
2023-03-14T02:30:52.115Z,0.60
2023-03-14T02:33:21.540Z,0.60
2023-03-14T02:35:54.287Z,0.70
2023-03-14T02:38:57.462Z,0.40
2023-03-14T02:41:24.223Z,0.65
2023-03-14T02:43:51.018Z,0.35
2023-03-14T02:46:20.820Z,0.50
2023-03-14T02:48:55.889Z,0.50
2023-03-14T02:51:23.767Z,0.65
2023-03-14T02:53:50.637Z,0.55
2023-03-14T02:56:17.353Z,0.60
2023-03-14T02:58:44.086Z,0.40
2023-03-14T03:01:10.875Z,0.65
2023-03-14T03:03:37.700Z,0.40
2023-03-14T03:06:04.649Z,0.50
2023-03-14T03:08:32.801Z,0.43
2023-03-14T03:10:59.775Z,0.60
2023-03-14T03:13:27.627Z,0.50
2023-03-14T03:15:54.620Z,0.22
2023-03-14T03:18:21.467Z,0.38
2023-03-14T03:20:48.258Z,0.30
2023-03-14T03:23:15.181Z,0.30
2023-03-14T03:25:42.000Z,0.38
2023-03-14T03:28:09.022Z,0.38
2023-03-14T03:30:40.841Z,0.28
2023-03-14T03:33:08.117Z,0.50
2023-03-14T03:35:34.985Z,0.35
2023-03-14T03:38:01.791Z,0.55
2023-03-14T03:40:28.778Z,0.30
2023-03-14T03:42:55.551Z,0.20
2023-03-14T03:45:22.340Z,0.28
2023-03-14T03:47:49.102Z,0.32
2023-03-14T03:50:16.072Z,0.40
2023-03-14T03:52:42.798Z,0.30
2023-03-14T03:55:09.705Z,0.35
2023-03-14T03:57:36.461Z,0.30
2023-03-14T04:00:05.939Z,0.50
2023-03-14T04:02:33.277Z,0.70
2023-03-14T04:05:00.227Z,0.30
2023-03-14T04:07:27.176Z,0.47
2023-03-14T04:09:53.873Z,0.52
2023-03-14T04:12:20.596Z,0.25
2023-03-14T04:14:47.746Z,0.50
2023-03-14T04:17:14.567Z,0.45
2023-03-14T04:19:41.688Z,0.40
2023-03-14T04:22:08.839Z,0.38
2023-03-14T04:24:36.005Z,0.63
2023-03-14T04:27:02.702Z,0.82
2023-03-14T04:29:29.629Z,0.40
2023-03-14T04:31:56.311Z,0.60
2023-03-14T04:34:23.004Z,0.82
2023-03-14T04:36:49.767Z,0.60
2023-03-14T04:39:16.509Z,0.45
2023-03-14T04:41:43.225Z,0.50
2023-03-14T04:44:09.957Z,0.32
2023-03-14T04:46:36.688Z,0.40
2023-03-14T04:49:03.483Z,0.40
2023-03-14T04:51:30.241Z,0.40
2023-03-14T04:53:57.000Z,0.40
2023-03-14T04:56:23.748Z,0.28
2023-03-14T04:58:50.631Z,0.85
2023-03-14T05:01:18.679Z,0.55
2023-03-14T05:03:45.448Z,0.63
2023-03-14T05:06:12.460Z,0.30
2023-03-14T05:08:39.199Z,0.55
2023-03-14T05:11:06.243Z,0.30
2023-03-14T05:13:32.969Z,0.30
2023-03-14T05:16:08.269Z,0.38
2023-03-14T05:18:35.085Z,0.40
2023-03-14T05:21:02.400Z,0.38
2023-03-14T05:23:29.562Z,0.50
2023-03-14T05:25:56.731Z,0.40
2023-03-14T05:28:23.542Z,0.32
2023-03-14T05:30:50.344Z,0.70
2023-03-14T05:33:17.073Z,0.40
2023-03-14T05:35:44.123Z,0.50
2023-03-14T05:38:10.901Z,0.40
2023-03-14T05:40:37.748Z,0.45
2023-03-14T05:43:04.815Z,0.32
2023-03-14T05:45:33.349Z,0.30
2023-03-14T05:48:01.249Z,0.60
2023-03-14T05:50:27.984Z,0.50
2023-03-14T05:52:54.700Z,0.43
2023-03-14T05:55:21.463Z,0.40
2023-03-14T05:57:48.268Z,0.40
2023-03-14T06:00:15.318Z,0.40
2023-03-14T06:02:42.121Z,0.73
2023-03-14T06:05:09.151Z,0.45
2023-03-14T06:07:35.869Z,0.43
2023-03-14T06:10:02.637Z,0.68
2023-03-14T06:12:29.811Z,0.60
2023-03-14T06:14:56.608Z,0.68
2023-03-14T06:17:23.356Z,0.70
2023-03-14T06:19:50.056Z,0.80
2023-03-14T06:22:16.820Z,0.80
2023-03-14T06:24:43.584Z,1.10
2023-03-14T06:27:10.308Z,0.90
2023-03-14T06:29:37.021Z,1.20
2023-03-14T06:32:03.993Z,0.80
2023-03-14T06:34:30.698Z,1.23
2023-03-14T06:36:57.409Z,0.80
2023-03-14T06:39:24.160Z,0.52
2023-03-14T06:41:50.870Z,0.82
2023-03-14T06:44:17.644Z,1.00
2023-03-14T06:46:44.513Z,0.95
2023-03-14T06:49:11.215Z,0.75
2023-03-14T06:51:37.980Z,0.80
2023-03-14T06:54:04.763Z,0.70
2023-03-14T06:56:31.524Z,0.80
2023-03-14T06:58:58.245Z,0.80
2023-03-14T07:01:27.792Z,0.60
2023-03-14T07:03:54.956Z,0.70
2023-03-14T07:06:22.052Z,0.70
2023-03-14T07:08:49.019Z,0.77
2023-03-14T07:11:15.820Z,0.80
2023-03-14T07:13:42.606Z,1.05
2023-03-14T07:16:09.987Z,0.70
2023-03-14T07:18:38.287Z,0.88
2023-03-14T07:21:06.782Z,0.70
2023-03-14T07:23:34.713Z,0.75
2023-03-14T07:26:01.707Z,0.82
2023-03-14T07:28:28.754Z,0.73
2023-03-14T07:30:55.839Z,0.80
2023-03-14T07:33:22.735Z,0.70
2023-03-14T07:35:50.498Z,0.55
2023-03-14T07:38:17.844Z,0.70
2023-03-14T07:40:44.602Z,0.70
2023-03-14T07:43:11.312Z,0.80
2023-03-14T07:45:42.949Z,0.40
2023-03-14T07:48:10.820Z,0.70
2023-03-14T07:50:37.572Z,0.70
2023-03-14T07:53:04.404Z,0.80
2023-03-14T07:55:31.291Z,1.02
2023-03-14T07:57:58.054Z,0.60
2023-03-14T08:00:24.838Z,0.80
2023-03-14T08:02:51.580Z,0.70
2023-03-14T08:05:18.341Z,0.52
2023-03-14T08:07:45.068Z,0.50
2023-03-14T08:10:11.932Z,0.57
2023-03-14T08:12:39.504Z,0.60
2023-03-14T08:15:06.793Z,0.60
2023-03-14T08:17:33.686Z,0.47
2023-03-14T08:20:00.488Z,0.60
2023-03-14T08:22:27.250Z,0.60
2023-03-14T08:24:53.962Z,0.63
2023-03-14T08:27:20.716Z,0.88
2023-03-14T08:29:47.423Z,0.40
2023-03-14T08:32:14.265Z,0.50
2023-03-14T08:34:41.042Z,0.40
2023-03-14T08:37:19.662Z,0.40
2023-03-14T08:39:50.524Z,0.30
2023-03-14T08:42:17.396Z,0.50
2023-03-14T08:44:44.339Z,0.50
2023-03-14T08:47:11.441Z,0.60
2023-03-14T08:49:38.321Z,0.55
2023-03-14T08:52:06.013Z,0.50
2023-03-14T08:54:49.235Z,0.50
2023-03-14T08:57:16.100Z,0.55
2023-03-14T08:59:43.080Z,0.80
2023-03-14T09:02:13.968Z,0.50
2023-03-14T09:04:40.949Z,0.40
2023-03-14T09:07:07.740Z,0.40
2023-03-14T09:09:34.497Z,0.90
2023-03-14T09:12:01.311Z,0.57
2023-03-14T09:14:28.191Z,0.60
2023-03-14T09:16:55.008Z,0.40
2023-03-14T09:19:22.011Z,0.25
2023-03-14T09:21:48.738Z,0.30
2023-03-14T09:24:16.468Z,0.40
2023-03-14T09:26:43.314Z,0.50
2023-03-14T09:29:10.456Z,0.30
2023-03-14T09:31:37.244Z,0.50
2023-03-14T09:34:04.052Z,0.60
2023-03-14T09:36:31.252Z,0.65
2023-03-14T09:38:58.089Z,0.70
2023-03-14T09:41:28.503Z,0.47
2023-03-14T09:44:20.565Z,0.50
2023-03-14T09:46:51.334Z,0.77
2023-03-14T09:49:32.933Z,0.50
2023-03-14T09:52:04.390Z,0.60
2023-03-14T09:54:43.626Z,0.40
2023-03-14T09:57:21.467Z,0.57
2023-03-14T09:59:50.252Z,0.52
2023-03-14T10:02:26.300Z,0.40
2023-03-14T10:04:55.286Z,0.57
2023-03-14T10:07:32.692Z,0.60
2023-03-14T10:10:00.512Z,0.40
2023-03-14T10:12:39.916Z,0.50
2023-03-14T10:15:10.750Z,0.60
2023-03-14T10:17:48.059Z,0.57
2023-03-14T10:20:36.317Z,0.52
2023-03-14T10:23:07.917Z,0.60
2023-03-14T10:25:36.622Z,0.35
2023-03-14T10:28:05.285Z,0.40
2023-03-14T10:30:45.065Z,0.50
2023-03-14T10:33:19.150Z,0.70
2023-03-14T10:35:47.702Z,0.50
2023-03-14T10:38:16.067Z,0.40
2023-03-14T10:40:53.741Z,0.50
2023-03-14T10:43:28.130Z,0.32
2023-03-14T10:48:33.078Z,0.35
2023-03-14T10:51:05.917Z,0.50
2023-03-14T10:53:51.009Z,0.40
2023-03-14T10:56:21.184Z,0.55
2023-03-14T10:58:50.494Z,0.35
2023-03-14T11:01:26.459Z,0.47
2023-03-14T11:04:20.216Z,0.43
2023-03-14T11:07:16.569Z,0.32
2023-03-14T11:09:54.926Z,0.40
2023-03-14T11:12:36.997Z,0.60
2023-03-14T11:15:33.518Z,0.50
2023-03-14T11:18:45.487Z,0.40
2023-03-14T11:21:42.917Z,0.40
2023-03-14T11:24:31.842Z,0.30
2023-03-14T11:27:07.373Z,0.40
2023-03-14T11:29:52.534Z,0.43
2023-03-14T11:32:28.670Z,0.43
2023-03-14T11:34:57.301Z,0.30
2023-03-14T11:37:34.768Z,0.50
2023-03-14T11:40:26.122Z,0.90
2023-03-14T11:43:31.691Z,0.70
2023-03-14T11:46:05.608Z,0.40
2023-03-14T11:49:04.537Z,0.57
2023-03-14T11:51:38.055Z,0.40
2023-03-14T11:54:23.408Z,0.70
2023-03-14T11:56:56.450Z,0.60
2023-03-14T11:59:31.419Z,0.90
2023-03-14T12:02:36.650Z,1.00
2023-03-14T12:05:33.216Z,0.65
2023-03-14T12:08:12.169Z,0.82
2023-03-14T12:10:46.073Z,0.50
2023-03-14T12:13:15.761Z,0.75
2023-03-14T12:16:07.864Z,0.80
2023-03-14T12:18:42.673Z,0.68
2023-03-14T12:21:12.200Z,0.60
2023-03-14T12:23:43.406Z,0.40
2023-03-14T12:26:13.136Z,0.57
2023-03-14T12:28:45.712Z,0.55
2023-03-14T12:31:33.497Z,0.40
2023-03-14T12:34:12.388Z,0.30
2023-03-14T12:36:51.187Z,0.60
2023-03-14T12:39:36.710Z,0.60
2023-03-14T12:42:12.673Z,0.60
2023-03-14T12:44:41.984Z,0.73
2023-03-14T12:47:20.752Z,0.63
2023-03-14T12:49:53.453Z,0.60
2023-03-14T12:52:22.922Z,0.60
2023-03-14T12:54:58.452Z,0.47
2023-03-14T12:58:01.378Z,0.65
2023-03-14T13:00:34.240Z,0.60
2023-03-14T13:03:14.344Z,0.50
2023-03-14T13:05:54.135Z,0.43
2023-03-14T13:08:44.981Z,0.60
2023-03-14T13:11:19.899Z,0.60
2023-03-14T13:13:56.828Z,0.50
2023-03-14T13:16:24.350Z,0.55
2023-03-14T13:19:04.326Z,0.50
2023-03-14T13:21:36.642Z,0.30
2023-03-14T13:24:09.773Z,0.30
2023-03-14T13:26:43.430Z,0.20
2023-03-14T13:29:22.530Z,0.43
2023-03-14T13:31:59.956Z,0.50
2023-03-14T13:34:29.927Z,0.38
2023-03-14T13:36:57.133Z,0.57
2023-03-14T13:39:26.479Z,0.70
2023-03-14T13:41:54.620Z,0.60
2023-03-14T13:44:40.275Z,0.80
2023-03-14T13:47:14.299Z,0.50
2023-03-14T13:49:41.291Z,0.50
2023-03-14T13:52:31.003Z,0.80
2023-03-14T13:55:04.209Z,0.60
2023-03-14T13:57:55.440Z,0.60
2023-03-14T14:00:28.201Z,0.60
2023-03-14T14:02:56.778Z,0.60
2023-03-14T14:05:26.563Z,0.47
2023-03-14T14:07:53.387Z,0.35
2023-03-14T14:10:21.054Z,0.50
2023-03-14T14:13:00.620Z,0.32
2023-03-14T14:15:29.296Z,0.40
2023-03-14T14:17:59.024Z,1.00
2023-03-14T14:20:36.017Z,0.40
2023-03-14T14:23:05.854Z,0.57
2023-03-14T14:25:33.683Z,0.50
2023-03-14T14:28:15.375Z,0.50
2023-03-14T14:30:42.233Z,0.30
2023-03-14T14:33:20.723Z,0.55
2023-03-14T14:35:59.077Z,0.52
2023-03-14T14:38:26.224Z,0.30
2023-03-14T14:40:56.756Z,0.40
2023-03-14T14:43:27.016Z,0.28
2023-03-14T14:45:56.921Z,0.60
2023-03-14T14:48:26.243Z,0.30
2023-03-14T14:50:55.791Z,0.30
2023-03-14T14:53:32.497Z,0.22
2023-03-14T14:56:07.101Z,0.40
2023-03-14T14:58:42.237Z,0.52
2023-03-14T15:01:33.344Z,0.30
2023-03-14T15:04:00.207Z,0.35
2023-03-14T15:06:30.244Z,0.40
2023-03-14T15:08:57.883Z,0.40
2023-03-14T15:11:27.117Z,0.47
2023-03-14T15:13:54.974Z,0.30
2023-03-14T15:16:30.090Z,0.20
2023-03-14T15:19:03.250Z,0.20
2023-03-14T15:21:34.289Z,0.20
2023-03-14T15:24:01.038Z,0.40
2023-03-14T15:26:29.085Z,0.20
2023-03-14T15:28:55.832Z,0.20
2023-03-14T15:31:23.153Z,0.20
2023-03-14T15:33:50.043Z,0.10
2023-03-14T15:36:26.827Z,0.32
2023-03-14T15:38:54.940Z,0.43
2023-03-14T15:41:22.860Z,0.22
2023-03-14T15:43:50.188Z,0.70
2023-03-14T15:46:18.872Z,0.57
2023-03-14T15:48:46.588Z,0.50
2023-03-14T15:51:13.529Z,0.70
2023-03-14T15:53:40.984Z,0.70
2023-03-14T15:56:11.819Z,0.50
2023-03-14T15:58:41.163Z,0.70
2023-03-14T16:01:11.084Z,0.60
2023-03-14T16:03:38.169Z,0.70
2023-03-14T16:06:05.945Z,0.75
2023-03-14T16:08:32.750Z,0.85
2023-03-14T16:11:00.235Z,1.00
2023-03-14T16:13:28.481Z,0.82
2023-03-14T16:15:57.734Z,0.80
2023-03-14T16:18:25.041Z,0.93
2023-03-14T16:20:56.223Z,0.82
2023-03-14T16:23:22.976Z,0.88
2023-03-14T16:25:50.328Z,0.80
2023-03-14T16:28:17.106Z,0.90
2023-03-14T16:30:43.865Z,0.93
2023-03-14T16:36:01.186Z,1.00
2023-03-14T16:38:31.740Z,0.90
2023-03-14T16:41:03.600Z,1.42
2023-03-14T16:43:30.953Z,0.90
2023-03-14T16:45:59.746Z,1.17
2023-03-14T16:48:29.998Z,0.93
2023-03-14T16:50:57.104Z,1.30
2023-03-14T16:53:25.104Z,1.02
2023-03-14T16:55:51.998Z,1.27
2023-03-14T16:58:21.033Z,1.45
2023-03-14T17:00:48.738Z,1.10
2023-03-14T17:03:17.267Z,1.20
2023-03-14T17:05:48.420Z,1.02
2023-03-14T17:08:16.745Z,1.17
2023-03-14T17:10:43.469Z,1.30
2023-03-14T17:13:10.864Z,1.10
2023-03-14T17:15:38.102Z,0.95
2023-03-14T17:18:05.730Z,0.70
2023-03-14T17:20:33.032Z,0.98
2023-03-14T17:22:59.791Z,1.20
2023-03-14T17:25:26.553Z,0.80
2023-03-14T17:27:54.282Z,0.70
2023-03-14T17:30:21.585Z,0.88
2023-03-14T17:32:48.395Z,1.00
2023-03-14T17:35:15.216Z,0.85
2023-03-14T17:37:42.085Z,0.85
2023-03-14T17:40:09.928Z,0.93
2023-03-14T17:42:36.623Z,0.73
2023-03-14T17:45:03.646Z,0.95
2023-03-14T17:47:30.771Z,0.70
2023-03-14T17:49:57.642Z,0.90
2023-03-14T17:52:24.417Z,1.00
2023-03-14T17:54:51.165Z,1.00
2023-03-14T17:57:17.905Z,0.77
2023-03-14T17:59:44.692Z,0.80
2023-03-14T18:02:11.662Z,0.80
2023-03-14T18:04:38.583Z,0.80
2023-03-14T18:07:05.511Z,0.80
2023-03-14T18:09:32.406Z,0.63
2023-03-14T18:12:07.725Z,1.02
2023-03-14T18:14:37.378Z,0.80
2023-03-14T18:17:04.444Z,0.90
2023-03-14T18:19:32.362Z,1.00
2023-03-14T18:21:59.755Z,0.65
2023-03-14T18:24:28.830Z,0.70
2023-03-14T18:26:55.777Z,1.00
2023-03-14T18:29:22.863Z,1.30
2023-03-14T18:31:49.722Z,0.68
2023-03-14T18:34:16.744Z,1.40
2023-03-14T18:36:43.505Z,1.35
2023-03-14T18:39:10.326Z,0.80
2023-03-14T18:41:37.698Z,0.80
2023-03-14T18:44:04.582Z,0.73
2023-03-14T18:46:31.784Z,0.80
2023-03-14T18:49:03.699Z,0.90
2023-03-14T18:51:32.946Z,1.08
2023-03-14T18:54:08.762Z,0.88
2023-03-14T18:56:38.471Z,0.90
2023-03-14T18:59:05.384Z,0.95
2023-03-14T19:01:34.246Z,1.02
2023-03-14T19:04:02.369Z,0.70
2023-03-14T19:06:32.800Z,0.80
2023-03-14T19:09:00.801Z,0.90
2023-03-14T19:11:28.120Z,1.05
2023-03-14T19:13:55.147Z,1.00
2023-03-14T19:16:24.315Z,0.90
2023-03-14T19:18:52.279Z,0.80
2023-03-14T19:21:35.978Z,0.90
2023-03-14T19:24:04.993Z,1.10
2023-03-14T19:26:32.852Z,0.95
2023-03-14T19:28:59.942Z,0.80
2023-03-14T19:31:27.411Z,1.00
2023-03-14T19:33:54.270Z,0.90
2023-03-14T19:36:24.575Z,1.00
2023-03-14T19:38:52.862Z,0.80
2023-03-14T19:41:20.600Z,0.95
2023-03-14T19:43:47.385Z,0.80
2023-03-14T19:46:14.285Z,0.85
2023-03-14T19:48:41.140Z,0.80
2023-03-14T19:51:09.625Z,0.93
2023-03-14T19:53:36.477Z,0.88
2023-03-14T19:56:06.414Z,1.60
2023-03-14T19:58:35.044Z,0.82
2023-03-14T20:01:02.407Z,0.73
2023-03-14T20:03:29.429Z,0.85
2023-03-14T20:05:56.279Z,0.90
2023-03-14T20:08:23.855Z,1.00
2023-03-14T20:10:50.691Z,0.88
2023-03-14T20:13:22.005Z,1.08
2023-03-14T20:15:50.229Z,0.85
2023-03-14T20:18:18.366Z,1.10
2023-03-14T20:20:45.665Z,0.80
2023-03-14T20:23:14.509Z,1.13
2023-03-14T20:25:42.011Z,1.10
2023-03-14T20:28:08.749Z,1.17
2023-03-14T20:30:35.564Z,1.00
2023-03-14T20:33:05.186Z,0.80
2023-03-14T20:35:32.004Z,1.02
2023-03-14T20:37:58.825Z,0.80
2023-03-14T20:40:28.630Z,1.10
2023-03-14T20:42:55.665Z,1.10
2023-03-14T20:45:22.385Z,1.40
2023-03-14T20:47:49.144Z,0.90
2023-03-14T20:50:15.921Z,1.10
2023-03-14T20:52:43.475Z,1.10
2023-03-14T20:55:10.963Z,1.13
2023-03-14T20:57:37.854Z,0.98
2023-03-14T21:00:07.824Z,1.10
2023-03-14T21:02:35.173Z,1.13
2023-03-14T21:05:02.720Z,1.02
2023-03-14T21:07:33.533Z,1.40
2023-03-14T21:10:00.839Z,1.27
2023-03-14T21:12:28.639Z,1.20
2023-03-14T21:14:55.462Z,1.30
2023-03-14T21:17:23.605Z,1.17
2023-03-14T21:19:58.086Z,1.52
2023-03-14T21:22:26.404Z,1.23
2023-03-14T21:24:56.868Z,1.45
2023-03-14T21:27:23.975Z,1.48
2023-03-14T21:29:50.822Z,1.40
2023-03-14T21:32:18.052Z,1.33
2023-03-14T21:34:44.818Z,1.27
2023-03-14T21:37:11.579Z,1.50
2023-03-14T21:39:41.303Z,1.45
2023-03-14T21:42:09.373Z,1.63
2023-03-14T21:44:41.273Z,1.60
2023-03-14T21:47:09.506Z,1.60
2023-03-14T21:49:39.073Z,1.80
2023-03-14T21:52:08.530Z,1.83
2023-03-14T21:54:35.861Z,2.28
2023-03-14T21:57:05.326Z,1.90
2023-03-14T21:59:33.936Z,1.90
2023-03-14T22:02:02.699Z,1.88
2023-03-14T22:04:38.430Z,1.80
2023-03-14T22:07:10.653Z,2.10
2023-03-14T22:09:43.397Z,1.33
2023-03-14T22:12:13.100Z,1.58
2023-03-14T22:14:39.822Z,1.80
2023-03-14T22:17:06.581Z,1.70
2023-03-14T22:19:33.372Z,1.65
2023-03-14T22:22:00.499Z,1.70
2023-03-14T22:24:27.342Z,1.20
2023-03-14T22:26:55.249Z,1.40
2023-03-14T22:29:23.445Z,1.30
2023-03-14T22:31:50.386Z,1.48
2023-03-14T22:34:17.185Z,1.45
2023-03-14T22:36:43.935Z,1.17
2023-03-14T22:39:10.693Z,1.33
2023-03-14T22:41:37.432Z,1.13
2023-03-14T22:44:04.457Z,1.17
2023-03-14T22:46:31.192Z,1.10
2023-03-14T22:48:57.888Z,1.30
2023-03-14T22:51:24.811Z,1.55
2023-03-14T22:53:51.506Z,1.10
2023-03-14T22:56:18.240Z,1.25
2023-03-14T22:58:44.965Z,1.08
2023-03-14T23:01:12.962Z,1.10
2023-03-14T23:03:39.746Z,1.30
2023-03-14T23:06:06.759Z,1.10
2023-03-14T23:08:34.328Z,1.20
2023-03-14T23:11:05.936Z,1.02
2023-03-14T23:13:33.393Z,1.17
2023-03-14T23:16:01.292Z,1.25
2023-03-14T23:18:28.741Z,0.93
2023-03-14T23:21:18.133Z,0.90
2023-03-14T23:23:47.048Z,0.70
2023-03-14T23:26:16.647Z,0.80
2023-03-14T23:28:43.926Z,1.02
2023-03-14T23:31:14.358Z,0.82
2023-03-14T23:33:42.337Z,0.80
2023-03-14T23:36:12.456Z,0.60
2023-03-14T23:38:41.904Z,0.60
2023-03-14T23:41:09.938Z,0.60
2023-03-14T23:43:36.828Z,0.43
2023-03-14T23:46:03.590Z,0.43
2023-03-14T23:48:33.755Z,0.60
2023-03-14T23:51:03.713Z,0.60
2023-03-14T23:53:31.601Z,0.50
2023-03-14T23:55:58.798Z,0.73
2023-03-14T23:58:26.646Z,0.65
